Ariadne — SVST — position and weather

sailwx.info

Track history (hours):
 
Tides and Currents Weather Stations Pressure Air Temp Water Temp Dewpoint Dewpoint Depression Visibility Wind Speed Wind Dir Waves Ship Positions

Ariadne

Last reported at 2018-Feb-08 14:30 UTC. Time now 2018-Feb-19 04:26 UTC.
Position N 37°57' E 023°38'.
Warning: this ship's position is 10 days out of date.

Length 196 m; draft 6.8 m.

Type: Passenger vessel. MMSI: 240580000.

Date/timePositionNaut miles runAvg speedWind from/ knotsBaromVisibWave heightAir tempDewpointWater temp
2018-Feb-08 14:30N 37°57' E 023°38'0 0.0
2018-Feb-08 01:28N 37°57' E 023°38'0 0.0
2018-Feb-08 00:58N 37°57' E 023°38'0 0.0
2018-Feb-08 00:28N 37°57' E 023°38'0 0.0
2018-Feb-08 00:01N 37°57' E 023°38'0 0.0
2018-Feb-07 23:30N 37°57' E 023°38'0 0.0
2018-Feb-07 23:00N 37°57' E 023°38'0 0.0
2018-Feb-07 22:30N 37°57' E 023°38'0 0.0
2018-Feb-07 21:59N 37°57' E 023°38'0 0.0
2018-Feb-07 21:29N 37°57' E 023°38'15 1.2
2018-Feb-07 08:30N 37°42' E 023°44'918.9
2018-Feb-07 08:01N 37°33' E 023°43'1320.4
2018-Feb-07 07:21N 37°20' E 023°39'36116.7
2018-Feb-06 09:42N 37°47' E 016°04'312.9
2018-Feb-06 09:30N 37°48' E 016°01'510.9
2018-Feb-06 09:00N 37°49' E 015°54'610.8
2018-Feb-06 08:25N 37°51' E 015°47'714.8
2018-Feb-06 07:57N 37°53' E 015°38'1518.6
2018-Feb-06 07:07N 38°09' E 015°35'213.5
2018-Feb-06 06:59N 38°10' E 015°34'917.6
2018-Feb-06 06:30N 38°17' E 015°41'714.4
2018-Feb-06 05:59N 38°23' E 015°35'919.0
2018-Feb-06 05:30N 38°30' E 015°27'918.3
2018-Feb-06 05:00N 38°37' E 015°19'918.5
2018-Feb-06 04:30N 38°44' E 015°11'87 2.7
2018-Feb-04 20:49N 38°26' E 013°23'1720.8
2018-Feb-04 20:00N 38°10' E 013°26'4 4.8
2018-Feb-04 19:15N 38°08' E 013°22'0 0.0
2018-Feb-04 18:56N 38°08' E 013°22'0 0.0
2018-Feb-04 18:08N 38°08' E 013°22'0 0.0
2018-Feb-04 17:50N 38°08' E 013°22'0 0.0
2018-Feb-04 17:26N 38°08' E 013°22'0 0.0
2018-Feb-04 15:30N 38°08' E 013°22'0 0.0
2018-Feb-04 15:00N 38°08' E 013°22'3 5.4
2018-Feb-04 14:30N 38°10' E 013°24'917.5
2018-Feb-04 14:01N 38°17' E 013°17'1121.1
2018-Feb-04 13:31N 38°17' E 013°03'1020.6
2018-Feb-04 13:00N 38°16' E 012°50'115 6.9
2018-Feb-03 20:14N 37°13' E 010°48'419.3
2018-Feb-03 20:01N 37°16' E 010°52'2919.5
2018-Feb-03 18:31N 37°36' E 011°19'1019.9
2018-Feb-03 18:01N 37°42' E 011°29'6818.7
2018-Feb-03 14:23N 38°16' E 012°43'719.0
2018-Feb-03 14:01N 38°17' E 012°52'918.7
2018-Feb-03 13:31N 38°17' E 013°04'918.7
2018-Feb-03 13:00N 38°17' E 013°16'817.0
2018-Feb-03 12:31N 38°12' E 013°25'4 8.5
2018-Feb-03 12:00N 38°08' E 013°22'0 0.1
2018-Feb-03 11:29N 38°08' E 013°22'0 0.0
2018-Feb-03 10:59N 38°08' E 013°22'0 0.0
2018-Feb-03 10:29N 38°08' E 013°22'0 0.0
2018-Feb-03 09:58N 38°08' E 013°22'0 0.0
2018-Feb-03 09:28N 38°08' E 013°22'0 0.0
2018-Feb-03 09:00N 38°08' E 013°22'0 0.0
2018-Feb-03 08:30N 38°08' E 013°22'1 1.8
2018-Feb-03 08:01N 38°07' E 013°23'2818.4
2018-Feb-03 06:30N 38°35' E 013°20'15 0.6
2018-Feb-02 03:05N 38°50' E 013°16'220.1
2018-Feb-02 03:00N 38°48' E 013°16'1020.1
2018-Feb-02 02:30N 38°39' E 013°20'1020.4
2018-Feb-02 02:01N 38°29' E 013°22'1020.8
2018-Feb-02 01:30N 38°19' E 013°24'1020.1
2018-Feb-02 01:00N 38°09' E 013°25'3 4.8
2018-Feb-02 00:29N 38°08' E 013°22'0 0.0
2018-Feb-01 23:58N 38°08' E 013°22'0 0.0
2018-Feb-01 23:28N 38°08' E 013°22'0 0.0
2018-Feb-01 22:59N 38°08' E 013°22'0 0.0
2018-Feb-01 22:00N 38°08' E 013°22'0 0.3
2018-Feb-01 21:30N 38°08' E 013°22'3617.8
2018-Feb-01 19:30N 38°43' E 013°19'5 0.1
2018-Jan-31 07:10N 38°48' E 013°20'421.0
2018-Jan-31 06:58N 38°44' E 013°22'1020.6
2018-Jan-31 06:30N 38°35' E 013°27'1020.2
2018-Jan-31 06:00N 38°26' E 013°32'1020.5
2018-Jan-31 05:30N 38°16' E 013°36'1020.9
2018-Jan-31 05:00N 38°06' E 013°41'714.3
2018-Jan-31 04:30N 37°59' E 013°43'0 0.3
2018-Jan-31 03:59N 37°59' E 013°42'0 0.0
2018-Jan-31 03:29N 37°59' E 013°42'0 0.0
2018-Jan-31 02:58N 37°59' E 013°42'0 0.0
2018-Jan-31 02:28N 37°59' E 013°42'0 0.0
2018-Jan-31 01:58N 37°59' E 013°42'0 0.0
2018-Jan-31 01:31N 37°59' E 013°42'0 0.2
2018-Jan-31 01:00N 37°59' E 013°42'1717.3
2018-Jan-31 00:00N 38°16' E 013°36'1121.5
2018-Jan-30 23:30N 38°26' E 013°31'1121.7
2018-Jan-30 23:01N 38°36' E 013°26'  
Track history (hours):
 
Tides and Currents Weather Stations Pressure Air Temp Water Temp Dewpoint Dewpoint Depression Visibility Wind Speed Wind Dir Waves Ship Positions

Ariadne

Last reported at 2018-Feb-08 14:30 UTC. Time now 2018-Feb-19 04:26 UTC.
Position N 37°57' E 023°38'.
Warning: this ship's position is 10 days out of date.

Length 196 m; draft 6.8 m.

Type: Passenger vessel. MMSI: 240580000.

Date/timePositionNaut miles runAvg speedWind from/ knotsBaromVisibWave heightAir tempDewpointWater temp
2018-Feb-08 14:30N 37°57' E 023°38'0 0.0
2018-Feb-08 01:28N 37°57' E 023°38'0 0.0
2018-Feb-08 00:58N 37°57' E 023°38'0 0.0
2018-Feb-08 00:28N 37°57' E 023°38'0 0.0
2018-Feb-08 00:01N 37°57' E 023°38'0 0.0
2018-Feb-07 23:30N 37°57' E 023°38'0 0.0
2018-Feb-07 23:00N 37°57' E 023°38'0 0.0
2018-Feb-07 22:30N 37°57' E 023°38'0 0.0
2018-Feb-07 21:59N 37°57' E 023°38'0 0.0
2018-Feb-07 21:29N 37°57' E 023°38'15 1.2
2018-Feb-07 08:30N 37°42' E 023°44'918.9
2018-Feb-07 08:01N 37°33' E 023°43'1320.4
2018-Feb-07 07:21N 37°20' E 023°39'36116.7
2018-Feb-06 09:42N 37°47' E 016°04'312.9
2018-Feb-06 09:30N 37°48' E 016°01'510.9
2018-Feb-06 09:00N 37°49' E 015°54'610.8
2018-Feb-06 08:25N 37°51' E 015°47'714.8
2018-Feb-06 07:57N 37°53' E 015°38'1518.6
2018-Feb-06 07:07N 38°09' E 015°35'213.5
2018-Feb-06 06:59N 38°10' E 015°34'917.6
2018-Feb-06 06:30N 38°17' E 015°41'714.4
2018-Feb-06 05:59N 38°23' E 015°35'919.0
2018-Feb-06 05:30N 38°30' E 015°27'918.3
2018-Feb-06 05:00N 38°37' E 015°19'918.5
2018-Feb-06 04:30N 38°44' E 015°11'87 2.7
2018-Feb-04 20:49N 38°26' E 013°23'1720.8
2018-Feb-04 20:00N 38°10' E 013°26'4 4.8
2018-Feb-04 19:15N 38°08' E 013°22'0 0.0
2018-Feb-04 18:56N 38°08' E 013°22'0 0.0
2018-Feb-04 18:08N 38°08' E 013°22'0 0.0
2018-Feb-04 17:50N 38°08' E 013°22'0 0.0
2018-Feb-04 17:26N 38°08' E 013°22'0 0.0
2018-Feb-04 15:30N 38°08' E 013°22'0 0.0
2018-Feb-04 15:00N 38°08' E 013°22'3 5.4
2018-Feb-04 14:30N 38°10' E 013°24'917.5
2018-Feb-04 14:01N 38°17' E 013°17'1121.1
2018-Feb-04 13:31N 38°17' E 013°03'1020.6
2018-Feb-04 13:00N 38°16' E 012°50'115 6.9
2018-Feb-03 20:14N 37°13' E 010°48'419.3
2018-Feb-03 20:01N 37°16' E 010°52'2919.5
2018-Feb-03 18:31N 37°36' E 011°19'1019.9
2018-Feb-03 18:01N 37°42' E 011°29'6818.7
2018-Feb-03 14:23N 38°16' E 012°43'719.0
2018-Feb-03 14:01N 38°17' E 012°52'918.7
2018-Feb-03 13:31N 38°17' E 013°04'918.7
2018-Feb-03 13:00N 38°17' E 013°16'817.0
2018-Feb-03 12:31N 38°12' E 013°25'4 8.5
2018-Feb-03 12:00N 38°08' E 013°22'0 0.1
2018-Feb-03 11:29N 38°08' E 013°22'0 0.0
2018-Feb-03 10:59N 38°08' E 013°22'0 0.0
2018-Feb-03 10:29N 38°08' E 013°22'0 0.0
2018-Feb-03 09:58N 38°08' E 013°22'0 0.0
2018-Feb-03 09:28N 38°08' E 013°22'0 0.0
2018-Feb-03 09:00N 38°08' E 013°22'0 0.0
2018-Feb-03 08:30N 38°08' E 013°22'1 1.8
2018-Feb-03 08:01N 38°07' E 013°23'2818.4
2018-Feb-03 06:30N 38°35' E 013°20'15 0.6
2018-Feb-02 03:05N 38°50' E 013°16'220.1
2018-Feb-02 03:00N 38°48' E 013°16'1020.1
2018-Feb-02 02:30N 38°39' E 013°20'1020.4
2018-Feb-02 02:01N 38°29' E 013°22'1020.8
2018-Feb-02 01:30N 38°19' E 013°24'1020.1
2018-Feb-02 01:00N 38°09' E 013°25'3 4.8
2018-Feb-02 00:29N 38°08' E 013°22'0 0.0
2018-Feb-01 23:58N 38°08' E 013°22'0 0.0
2018-Feb-01 23:28N 38°08' E 013°22'0 0.0
2018-Feb-01 22:59N 38°08' E 013°22'0 0.0
2018-Feb-01 22:00N 38°08' E 013°22'0 0.3
2018-Feb-01 21:30N 38°08' E 013°22'3617.8
2018-Feb-01 19:30N 38°43' E 013°19'5 0.1
2018-Jan-31 07:10N 38°48' E 013°20'421.0
2018-Jan-31 06:58N 38°44' E 013°22'1020.6
2018-Jan-31 06:30N 38°35' E 013°27'1020.2
2018-Jan-31 06:00N 38°26' E 013°32'1020.5
2018-Jan-31 05:30N 38°16' E 013°36'1020.9
2018-Jan-31 05:00N 38°06' E 013°41'714.3
2018-Jan-31 04:30N 37°59' E 013°43'0 0.3
2018-Jan-31 03:59N 37°59' E 013°42'0 0.0
2018-Jan-31 03:29N 37°59' E 013°42'0 0.0
2018-Jan-31 02:58N 37°59' E 013°42'0 0.0
2018-Jan-31 02:28N 37°59' E 013°42'0 0.0
2018-Jan-31 01:58N 37°59' E 013°42'0 0.0
2018-Jan-31 01:31N 37°59' E 013°42'0 0.2
2018-Jan-31 01:00N 37°59' E 013°42'1717.3
2018-Jan-31 00:00N 38°16' E 013°36'1121.5
2018-Jan-30 23:30N 38°26' E 013°31'1121.7
2018-Jan-30 23:01N 38°36' E 013°26'  

Dump ship's entire track history